sensor_id;sensor_type;location;lat;lon;timestamp;P1;durP1;ratioP1;P2;durP2;ratioP2
44480;SDS011;30184;42.018;23.670;2023-09-19T00:01:09;6.38;;;2.78;;
44480;SDS011;30184;42.018;23.670;2023-09-19T00:03:39;6.40;;;2.85;;
44480;SDS011;30184;42.018;23.670;2023-09-19T00:06:09;5.40;;;2.70;;
44480;SDS011;30184;42.018;23.670;2023-09-19T00:08:40;5.18;;;3.05;;
44480;SDS011;30184;42.018;23.670;2023-09-19T00:11:12;5.40;;;2.47;;
44480;SDS011;30184;42.018;23.670;2023-09-19T00:13:42;4.93;;;2.67;;
44480;SDS011;30184;42.018;23.670;2023-09-19T00:16:11;7.05;;;3.13;;
44480;SDS011;30184;42.018;23.670;2023-09-19T00:18:41;3.83;;;2.28;;
44480;SDS011;30184;42.018;23.670;2023-09-19T00:21:10;5.03;;;2.65;;
44480;SDS011;30184;42.018;23.670;2023-09-19T00:23:40;5.70;;;2.80;;
44480;SDS011;30184;42.018;23.670;2023-09-19T00:26:09;6.18;;;3.20;;
44480;SDS011;30184;42.018;23.670;2023-09-19T00:28:40;4.53;;;2.40;;
44480;SDS011;30184;42.018;23.670;2023-09-19T00:31:09;7.47;;;3.08;;
44480;SDS011;30184;42.018;23.670;2023-09-19T00:33:39;5.03;;;2.45;;
44480;SDS011;30184;42.018;23.670;2023-09-19T00:36:08;6.40;;;2.90;;
44480;SDS011;30184;42.018;23.670;2023-09-19T00:38:37;5.18;;;2.03;;
44480;SDS011;30184;42.018;23.670;2023-09-19T00:41:06;3.90;;;2.35;;
44480;SDS011;30184;42.018;23.670;2023-09-19T00:43:35;9.25;;;3.67;;
44480;SDS011;30184;42.018;23.670;2023-09-19T00:46:06;4.18;;;2.65;;
44480;SDS011;30184;42.018;23.670;2023-09-19T00:48:37;6.15;;;2.42;;
44480;SDS011;30184;42.018;23.670;2023-09-19T00:51:11;5.53;;;2.77;;
44480;SDS011;30184;42.018;23.670;2023-09-19T00:53:43;5.50;;;2.90;;
44480;SDS011;30184;42.018;23.670;2023-09-19T00:56:13;5.00;;;2.30;;
44480;SDS011;30184;42.018;23.670;2023-09-19T00:58:46;7.60;;;2.67;;
44480;SDS011;30184;42.018;23.670;2023-09-19T01:01:18;4.70;;;2.53;;
44480;SDS011;30184;42.018;23.670;2023-09-19T01:03:48;8.57;;;3.08;;
44480;SDS011;30184;42.018;23.670;2023-09-19T01:06:18;11.05;;;3.47;;
44480;SDS011;30184;42.018;23.670;2023-09-19T01:08:48;9.35;;;3.15;;
44480;SDS011;30184;42.018;23.670;2023-09-19T01:11:20;4.70;;;2.42;;
44480;SDS011;30184;42.018;23.670;2023-09-19T01:13:55;8.23;;;2.95;;
44480;SDS011;30184;42.018;23.670;2023-09-19T01:16:35;3.55;;;2.38;;
44480;SDS011;30184;42.018;23.670;2023-09-19T01:19:16;7.63;;;3.33;;
44480;SDS011;30184;42.018;23.670;2023-09-19T01:22:02;24.20;;;3.70;;
44480;SDS011;30184;42.018;23.670;2023-09-19T01:24:48;4.13;;;2.22;;
44480;SDS011;30184;42.018;23.670;2023-09-19T01:27:52;5.38;;;2.50;;
44480;SDS011;30184;42.018;23.670;2023-09-19T01:30:39;6.93;;;3.15;;
44480;SDS011;30184;42.018;23.670;2023-09-19T01:33:12;6.72;;;3.10;;
44480;SDS011;30184;42.018;23.670;2023-09-19T01:35:42;4.65;;;2.85;;
44480;SDS011;30184;42.018;23.670;2023-09-19T01:38:12;6.22;;;2.75;;
44480;SDS011;30184;42.018;23.670;2023-09-19T01:40:42;4.75;;;2.90;;
44480;SDS011;30184;42.018;23.670;2023-09-19T01:43:20;6.10;;;3.28;;
44480;SDS011;30184;42.018;23.670;2023-09-19T01:45:56;4.60;;;2.50;;
44480;SDS011;30184;42.018;23.670;2023-09-19T01:48:34;4.22;;;2.72;;
44480;SDS011;30184;42.018;23.670;2023-09-19T01:51:08;5.07;;;3.00;;
44480;SDS011;30184;42.018;23.670;2023-09-19T01:53:41;6.45;;;2.88;;
44480;SDS011;30184;42.018;23.670;2023-09-19T01:56:16;6.97;;;3.30;;
44480;SDS011;30184;42.018;23.670;2023-09-19T01:58:53;6.55;;;3.50;;
44480;SDS011;30184;42.018;23.670;2023-09-19T02:01:26;5.50;;;3.05;;
44480;SDS011;30184;42.018;23.670;2023-09-19T02:03:57;5.60;;;3.20;;
44480;SDS011;30184;42.018;23.670;2023-09-19T02:06:27;5.72;;;2.80;;
44480;SDS011;30184;42.018;23.670;2023-09-19T02:08:57;5.90;;;3.08;;
44480;SDS011;30184;42.018;23.670;2023-09-19T02:11:26;4.22;;;2.60;;
44480;SDS011;30184;42.018;23.670;2023-09-19T02:13:56;6.30;;;3.40;;
44480;SDS011;30184;42.018;23.670;2023-09-19T02:16:28;5.00;;;2.97;;
44480;SDS011;30184;42.018;23.670;2023-09-19T02:18:57;9.02;;;2.95;;
44480;SDS011;30184;42.018;23.670;2023-09-19T02:21:27;9.43;;;3.40;;
44480;SDS011;30184;42.018;23.670;2023-09-19T02:23:57;4.68;;;2.53;;
44480;SDS011;30184;42.018;23.670;2023-09-19T02:26:26;12.20;;;2.92;;
44480;SDS011;30184;42.018;23.670;2023-09-19T02:28:55;4.90;;;2.25;;
44480;SDS011;30184;42.018;23.670;2023-09-19T02:31:24;4.35;;;2.90;;
44480;SDS011;30184;42.018;23.670;2023-09-19T02:33:58;5.70;;;2.67;;
44480;SDS011;30184;42.018;23.670;2023-09-19T02:36:28;5.07;;;2.58;;
44480;SDS011;30184;42.018;23.670;2023-09-19T02:38:57;5.70;;;2.40;;
44480;SDS011;30184;42.018;23.670;2023-09-19T02:41:26;8.20;;;3.38;;
44480;SDS011;30184;42.018;23.670;2023-09-19T02:43:56;6.75;;;2.47;;
44480;SDS011;30184;42.018;23.670;2023-09-19T02:46:27;5.43;;;3.47;;
44480;SDS011;30184;42.018;23.670;2023-09-19T02:48:58;5.50;;;3.53;;
44480;SDS011;30184;42.018;23.670;2023-09-19T02:51:28;3.45;;;2.25;;
44480;SDS011;30184;42.018;23.670;2023-09-19T02:53:57;5.13;;;2.47;;
44480;SDS011;30184;42.018;23.670;2023-09-19T02:56:26;11.35;;;3.90;;
44480;SDS011;30184;42.018;23.670;2023-09-19T02:58:56;7.47;;;3.22;;
44480;SDS011;30184;42.018;23.670;2023-09-19T03:01:28;11.60;;;3.35;;
44480;SDS011;30184;42.018;23.670;2023-09-19T03:03:59;6.63;;;2.78;;
44480;SDS011;30184;42.018;23.670;2023-09-19T03:06:28;6.55;;;3.10;;
44480;SDS011;30184;42.018;23.670;2023-09-19T03:08:58;7.38;;;3.15;;
44480;SDS011;30184;42.018;23.670;2023-09-19T03:11:28;5.70;;;2.78;;
44480;SDS011;30184;42.018;23.670;2023-09-19T03:13:58;5.28;;;2.75;;
44480;SDS011;30184;42.018;23.670;2023-09-19T03:16:27;5.57;;;2.70;;
44480;SDS011;30184;42.018;23.670;2023-09-19T03:19:00;6.43;;;3.58;;
44480;SDS011;30184;42.018;23.670;2023-09-19T03:21:31;16.73;;;3.75;;
44480;SDS011;30184;42.018;23.670;2023-09-19T03:24:01;8.35;;;3.42;;
44480;SDS011;30184;42.018;23.670;2023-09-19T03:26:31;7.10;;;3.10;;
44480;SDS011;30184;42.018;23.670;2023-09-19T03:29:03;5.25;;;3.17;;
44480;SDS011;30184;42.018;23.670;2023-09-19T03:31:35;7.55;;;3.63;;
44480;SDS011;30184;42.018;23.670;2023-09-19T03:34:09;5.35;;;2.85;;
44480;SDS011;30184;42.018;23.670;2023-09-19T03:36:38;6.93;;;3.55;;
44480;SDS011;30184;42.018;23.670;2023-09-19T03:39:08;6.88;;;3.20;;
44480;SDS011;30184;42.018;23.670;2023-09-19T03:41:38;6.90;;;3.13;;
44480;SDS011;30184;42.018;23.670;2023-09-19T03:44:08;7.85;;;3.38;;
44480;SDS011;30184;42.018;23.670;2023-09-19T03:46:37;4.47;;;2.58;;
44480;SDS011;30184;42.018;23.670;2023-09-19T03:49:06;6.38;;;3.50;;
44480;SDS011;30184;42.018;23.670;2023-09-19T03:51:37;8.82;;;4.13;;
44480;SDS011;30184;42.018;23.670;2023-09-19T03:54:09;8.30;;;4.65;;
44480;SDS011;30184;42.018;23.670;2023-09-19T03:56:38;8.95;;;4.10;;
44480;SDS011;30184;42.018;23.670;2023-09-19T03:59:07;12.52;;;6.03;;
44480;SDS011;30184;42.018;23.670;2023-09-19T04:01:37;7.63;;;4.03;;
44480;SDS011;30184;42.018;23.670;2023-09-19T04:04:10;9.23;;;3.40;;
44480;SDS011;30184;42.018;23.670;2023-09-19T04:06:41;7.10;;;3.40;;
44480;SDS011;30184;42.018;23.670;2023-09-19T04:09:10;6.45;;;4.10;;
44480;SDS011;30184;42.018;23.670;2023-09-19T04:11:40;6.28;;;2.88;;
44480;SDS011;30184;42.018;23.670;2023-09-19T04:14:11;10.63;;;3.53;;
44480;SDS011;30184;42.018;23.670;2023-09-19T04:16:40;7.93;;;4.15;;
44480;SDS011;30184;42.018;23.670;2023-09-19T04:19:11;10.07;;;3.05;;
44480;SDS011;30184;42.018;23.670;2023-09-19T04:21:42;4.03;;;2.85;;
44480;SDS011;30184;42.018;23.670;2023-09-19T04:24:12;4.40;;;2.80;;
44480;SDS011;30184;42.018;23.670;2023-09-19T04:26:41;7.38;;;3.88;;
44480;SDS011;30184;42.018;23.670;2023-09-19T04:29:11;7.13;;;3.58;;
44480;SDS011;30184;42.018;23.670;2023-09-19T04:31:41;8.68;;;4.25;;
44480;SDS011;30184;42.018;23.670;2023-09-19T04:34:12;7.30;;;3.25;;
44480;SDS011;30184;42.018;23.670;2023-09-19T04:36:43;6.70;;;3.85;;
44480;SDS011;30184;42.018;23.670;2023-09-19T04:39:13;7.95;;;3.13;;
44480;SDS011;30184;42.018;23.670;2023-09-19T04:41:42;9.73;;;4.13;;
44480;SDS011;30184;42.018;23.670;2023-09-19T04:44:13;6.75;;;3.90;;
44480;SDS011;30184;42.018;23.670;2023-09-19T04:46:43;6.55;;;3.38;;
44480;SDS011;30184;42.018;23.670;2023-09-19T04:49:15;8.85;;;4.43;;
44480;SDS011;30184;42.018;23.670;2023-09-19T04:51:45;14.75;;;4.85;;
44480;SDS011;30184;42.018;23.670;2023-09-19T04:54:14;6.45;;;3.50;;
44480;SDS011;30184;42.018;23.670;2023-09-19T04:56:45;7.57;;;4.22;;
44480;SDS011;30184;42.018;23.670;2023-09-19T04:59:14;8.73;;;4.43;;
44480;SDS011;30184;42.018;23.670;2023-09-19T05:01:43;7.55;;;3.42;;
44480;SDS011;30184;42.018;23.670;2023-09-19T05:04:15;9.55;;;3.90;;
44480;SDS011;30184;42.018;23.670;2023-09-19T05:06:45;8.57;;;4.10;;
44480;SDS011;30184;42.018;23.670;2023-09-19T05:09:15;7.63;;;3.78;;
44480;SDS011;30184;42.018;23.670;2023-09-19T05:11:47;10.05;;;4.03;;
44480;SDS011;30184;42.018;23.670;2023-09-19T05:14:18;11.40;;;4.93;;
44480;SDS011;30184;42.018;23.670;2023-09-19T05:16:48;11.20;;;4.45;;
44480;SDS011;30184;42.018;23.670;2023-09-19T05:19:18;11.43;;;4.63;;
44480;SDS011;30184;42.018;23.670;2023-09-19T05:21:48;7.30;;;4.25;;
44480;SDS011;30184;42.018;23.670;2023-09-19T05:24:17;8.00;;;4.25;;
44480;SDS011;30184;42.018;23.670;2023-09-19T05:26:46;8.32;;;4.78;;
44480;SDS011;30184;42.018;23.670;2023-09-19T05:29:16;21.20;;;5.72;;
44480;SDS011;30184;42.018;23.670;2023-09-19T05:31:45;10.23;;;4.40;;
44480;SDS011;30184;42.018;23.670;2023-09-19T05:34:14;8.90;;;4.53;;
44480;SDS011;30184;42.018;23.670;2023-09-19T05:36:45;6.90;;;3.33;;
44480;SDS011;30184;42.018;23.670;2023-09-19T05:39:16;7.65;;;3.78;;
44480;SDS011;30184;42.018;23.670;2023-09-19T05:41:45;7.60;;;4.15;;
44480;SDS011;30184;42.018;23.670;2023-09-19T05:44:15;7.03;;;4.13;;
44480;SDS011;30184;42.018;23.670;2023-09-19T05:46:44;8.93;;;4.63;;
44480;SDS011;30184;42.018;23.670;2023-09-19T05:49:15;13.88;;;5.55;;
44480;SDS011;30184;42.018;23.670;2023-09-19T05:51:46;9.15;;;4.70;;
44480;SDS011;30184;42.018;23.670;2023-09-19T05:54:15;7.93;;;4.47;;
44480;SDS011;30184;42.018;23.670;2023-09-19T05:56:47;9.90;;;5.20;;
44480;SDS011;30184;42.018;23.670;2023-09-19T05:59:20;10.32;;;5.70;;
44480;SDS011;30184;42.018;23.670;2023-09-19T06:01:50;10.13;;;4.72;;
44480;SDS011;30184;42.018;23.670;2023-09-19T06:04:19;10.73;;;4.70;;
44480;SDS011;30184;42.018;23.670;2023-09-19T06:06:50;9.02;;;3.85;;
44480;SDS011;30184;42.018;23.670;2023-09-19T06:09:19;9.88;;;4.63;;
44480;SDS011;30184;42.018;23.670;2023-09-19T06:11:49;7.93;;;4.72;;
44480;SDS011;30184;42.018;23.670;2023-09-19T06:14:19;8.25;;;3.90;;
44480;SDS011;30184;42.018;23.670;2023-09-19T06:16:49;7.70;;;3.80;;
44480;SDS011;30184;42.018;23.670;2023-09-19T06:19:21;7.22;;;4.05;;
44480;SDS011;30184;42.018;23.670;2023-09-19T06:21:54;11.63;;;4.25;;
44480;SDS011;30184;42.018;23.670;2023-09-19T06:24:23;11.75;;;4.32;;
44480;SDS011;30184;42.018;23.670;2023-09-19T06:26:53;14.32;;;4.70;;
44480;SDS011;30184;42.018;23.670;2023-09-19T06:29:22;8.93;;;4.00;;
44480;SDS011;30184;42.018;23.670;2023-09-19T06:31:52;7.88;;;3.67;;
44480;SDS011;30184;42.018;23.670;2023-09-19T06:34:21;6.97;;;3.05;;
44480;SDS011;30184;42.018;23.670;2023-09-19T06:36:51;16.65;;;5.85;;
44480;SDS011;30184;42.018;23.670;2023-09-19T06:39:24;32.13;;;12.20;;
44480;SDS011;30184;42.018;23.670;2023-09-19T06:41:54;24.15;;;9.65;;
44480;SDS011;30184;42.018;23.670;2023-09-19T06:44:23;20.45;;;6.75;;
44480;SDS011;30184;42.018;23.670;2023-09-19T06:46:53;12.48;;;4.90;;
44480;SDS011;30184;42.018;23.670;2023-09-19T06:49:22;16.38;;;5.80;;
44480;SDS011;30184;42.018;23.670;2023-09-19T06:51:53;30.98;;;11.13;;
44480;SDS011;30184;42.018;23.670;2023-09-19T06:54:26;20.27;;;7.68;;
44480;SDS011;30184;42.018;23.670;2023-09-19T06:56:58;20.50;;;6.68;;
44480;SDS011;30184;42.018;23.670;2023-09-19T06:59:27;9.98;;;4.20;;
44480;SDS011;30184;42.018;23.670;2023-09-19T07:01:57;5.80;;;3.15;;
44480;SDS011;30184;42.018;23.670;2023-09-19T07:04:27;10.10;;;3.92;;
44480;SDS011;30184;42.018;23.670;2023-09-19T07:06:56;5.38;;;3.17;;
44480;SDS011;30184;42.018;23.670;2023-09-19T07:09:27;4.97;;;3.13;;
44480;SDS011;30184;42.018;23.670;2023-09-19T07:11:56;5.38;;;3.28;;
44480;SDS011;30184;42.018;23.670;2023-09-19T07:14:25;16.05;;;3.70;;
44480;SDS011;30184;42.018;23.670;2023-09-19T07:16:55;5.53;;;2.78;;
44480;SDS011;30184;42.018;23.670;2023-09-19T07:19:27;6.28;;;2.88;;
44480;SDS011;30184;42.018;23.670;2023-09-19T07:21:58;5.70;;;3.10;;
44480;SDS011;30184;42.018;23.670;2023-09-19T07:24:31;9.75;;;4.95;;
44480;SDS011;30184;42.018;23.670;2023-09-19T07:27:00;8.57;;;4.28;;
44480;SDS011;30184;42.018;23.670;2023-09-19T07:29:30;6.25;;;3.28;;
44480;SDS011;30184;42.018;23.670;2023-09-19T07:31:59;7.25;;;3.05;;
44480;SDS011;30184;42.018;23.670;2023-09-19T07:34:28;5.72;;;3.05;;
44480;SDS011;30184;42.018;23.670;2023-09-19T07:36:57;5.75;;;3.08;;
44480;SDS011;30184;42.018;23.670;2023-09-19T07:39:26;6.13;;;3.33;;
44480;SDS011;30184;42.018;23.670;2023-09-19T07:41:57;9.88;;;3.08;;
44480;SDS011;30184;42.018;23.670;2023-09-19T07:44:26;7.35;;;3.83;;
44480;SDS011;30184;42.018;23.670;2023-09-19T07:46:55;5.20;;;2.80;;
44480;SDS011;30184;42.018;23.670;2023-09-19T07:49:25;6.82;;;3.63;;
44480;SDS011;30184;42.018;23.670;2023-09-19T07:51:54;6.72;;;3.75;;
44480;SDS011;30184;42.018;23.670;2023-09-19T07:54:24;5.13;;;2.90;;
44480;SDS011;30184;42.018;23.670;2023-09-19T07:56:54;5.35;;;2.92;;
44480;SDS011;30184;42.018;23.670;2023-09-19T07:59:24;5.05;;;3.05;;
44480;SDS011;30184;42.018;23.670;2023-09-19T08:01:54;6.13;;;3.25;;
44480;SDS011;30184;42.018;23.670;2023-09-19T08:04:23;5.75;;;3.05;;
44480;SDS011;30184;42.018;23.670;2023-09-19T08:06:53;6.78;;;3.55;;
44480;SDS011;30184;42.018;23.670;2023-09-19T08:09:23;8.02;;;3.60;;
44480;SDS011;30184;42.018;23.670;2023-09-19T08:11:52;5.55;;;2.78;;
44480;SDS011;30184;42.018;23.670;2023-09-19T08:14:21;12.43;;;3.33;;
44480;SDS011;30184;42.018;23.670;2023-09-19T08:16:57;7.85;;;3.47;;
44480;SDS011;30184;42.018;23.670;2023-09-19T08:19:27;7.70;;;3.15;;
44480;SDS011;30184;42.018;23.670;2023-09-19T08:21:58;4.50;;;2.90;;
44480;SDS011;30184;42.018;23.670;2023-09-19T08:24:28;5.70;;;2.83;;
44480;SDS011;30184;42.018;23.670;2023-09-19T08:26:58;5.57;;;2.72;;
44480;SDS011;30184;42.018;23.670;2023-09-19T08:29:30;6.55;;;2.80;;
44480;SDS011;30184;42.018;23.670;2023-09-19T08:32:01;6.00;;;2.65;;
44480;SDS011;30184;42.018;23.670;2023-09-19T08:34:31;4.45;;;2.50;;
44480;SDS011;30184;42.018;23.670;2023-09-19T08:37:01;5.63;;;3.13;;
44480;SDS011;30184;42.018;23.670;2023-09-19T08:39:31;6.03;;;3.25;;
44480;SDS011;30184;42.018;23.670;2023-09-19T08:42:02;5.40;;;2.95;;
44480;SDS011;30184;42.018;23.670;2023-09-19T08:44:36;8.77;;;3.00;;
44480;SDS011;30184;42.018;23.670;2023-09-19T08:47:10;5.95;;;3.03;;
44480;SDS011;30184;42.018;23.670;2023-09-19T08:49:46;5.85;;;2.78;;
44480;SDS011;30184;42.018;23.670;2023-09-19T08:52:25;4.38;;;2.40;;
44480;SDS011;30184;42.018;23.670;2023-09-19T08:54:56;5.30;;;3.00;;
44480;SDS011;30184;42.018;23.670;2023-09-19T08:57:33;6.63;;;3.40;;
44480;SDS011;30184;42.018;23.670;2023-09-19T09:00:07;4.28;;;2.40;;
44480;SDS011;30184;42.018;23.670;2023-09-19T09:02:40;5.07;;;2.75;;
44480;SDS011;30184;42.018;23.670;2023-09-19T09:05:11;5.07;;;2.80;;
44480;SDS011;30184;42.018;23.670;2023-09-19T09:07:42;4.30;;;2.30;;
44480;SDS011;30184;42.018;23.670;2023-09-19T09:10:12;4.05;;;2.80;;
44480;SDS011;30184;42.018;23.670;2023-09-19T09:12:42;5.32;;;3.15;;
44480;SDS011;30184;42.018;23.670;2023-09-19T09:15:11;5.68;;;2.78;;
44480;SDS011;30184;42.018;23.670;2023-09-19T09:17:48;6.47;;;2.97;;
44480;SDS011;30184;42.018;23.670;2023-09-19T09:20:17;7.10;;;3.67;;
44480;SDS011;30184;42.018;23.670;2023-09-19T09:22:50;9.77;;;4.10;;
44480;SDS011;30184;42.018;23.670;2023-09-19T09:25:21;5.35;;;3.17;;
44480;SDS011;30184;42.018;23.670;2023-09-19T09:27:58;7.55;;;4.05;;
44480;SDS011;30184;42.018;23.670;2023-09-19T09:30:32;5.57;;;3.38;;
44480;SDS011;30184;42.018;23.670;2023-09-19T09:33:10;5.72;;;3.42;;
44480;SDS011;30184;42.018;23.670;2023-09-19T09:35:47;5.95;;;3.10;;
44480;SDS011;30184;42.018;23.670;2023-09-19T09:38:20;4.95;;;3.20;;
44480;SDS011;30184;42.018;23.670;2023-09-19T09:40:53;6.40;;;3.78;;
44480;SDS011;30184;42.018;23.670;2023-09-19T09:43:30;5.90;;;3.38;;
44480;SDS011;30184;42.018;23.670;2023-09-19T09:46:10;8.07;;;3.72;;
44480;SDS011;30184;42.018;23.670;2023-09-19T09:49:00;6.25;;;3.63;;
44480;SDS011;30184;42.018;23.670;2023-09-19T09:51:58;5.95;;;3.38;;
44480;SDS011;30184;42.018;23.670;2023-09-19T09:54:33;4.93;;;2.80;;
44480;SDS011;30184;42.018;23.670;2023-09-19T09:57:05;6.97;;;3.72;;
44480;SDS011;30184;42.018;23.670;2023-09-19T09:59:47;5.38;;;3.22;;
44480;SDS011;30184;42.018;23.670;2023-09-19T10:02:20;5.55;;;3.40;;
44480;SDS011;30184;42.018;23.670;2023-09-19T10:04:58;6.00;;;3.05;;
44480;SDS011;30184;42.018;23.670;2023-09-19T10:07:37;6.28;;;3.45;;
44480;SDS011;30184;42.018;23.670;2023-09-19T10:10:11;4.22;;;2.80;;
44480;SDS011;30184;42.018;23.670;2023-09-19T10:12:51;4.03;;;2.60;;
44480;SDS011;30184;42.018;23.670;2023-09-19T10:15:31;7.78;;;3.50;;
44480;SDS011;30184;42.018;23.670;2023-09-19T10:18:01;4.70;;;3.00;;
44480;SDS011;30184;42.018;23.670;2023-09-19T10:20:37;6.50;;;3.45;;
44480;SDS011;30184;42.018;23.670;2023-09-19T10:23:09;7.50;;;3.88;;
44480;SDS011;30184;42.018;23.670;2023-09-19T10:25:41;4.82;;;2.97;;
44480;SDS011;30184;42.018;23.670;2023-09-19T10:28:13;5.03;;;2.53;;
44480;SDS011;30184;42.018;23.670;2023-09-19T10:30:49;7.22;;;3.63;;
44480;SDS011;30184;42.018;23.670;2023-09-19T10:33:21;4.78;;;2.85;;
44480;SDS011;30184;42.018;23.670;2023-09-19T10:35:54;6.15;;;2.95;;
44480;SDS011;30184;42.018;23.670;2023-09-19T10:38:28;5.03;;;2.90;;
44480;SDS011;30184;42.018;23.670;2023-09-19T10:41:01;5.65;;;2.50;;
44480;SDS011;30184;42.018;23.670;2023-09-19T10:43:32;4.32;;;2.55;;
44480;SDS011;30184;42.018;23.670;2023-09-19T10:46:06;5.68;;;2.70;;
44480;SDS011;30184;42.018;23.670;2023-09-19T10:48:38;5.53;;;2.88;;
44480;SDS011;30184;42.018;23.670;2023-09-19T10:51:12;5.00;;;3.00;;
44480;SDS011;30184;42.018;23.670;2023-09-19T10:53:47;4.68;;;2.95;;
44480;SDS011;30184;42.018;23.670;2023-09-19T10:56:23;5.40;;;2.60;;
44480;SDS011;30184;42.018;23.670;2023-09-19T10:59:05;3.78;;;2.72;;
44480;SDS011;30184;42.018;23.670;2023-09-19T11:01:42;4.97;;;2.40;;
44480;SDS011;30184;42.018;23.670;2023-09-19T11:04:21;3.13;;;1.95;;
44480;SDS011;30184;42.018;23.670;2023-09-19T11:07:03;3.85;;;2.03;;
44480;SDS011;30184;42.018;23.670;2023-09-19T11:09:42;4.28;;;2.30;;
44480;SDS011;30184;42.018;23.670;2023-09-19T11:24:28;3.53;;;1.88;;
44480;SDS011;30184;42.018;23.670;2023-09-19T11:27:13;4.15;;;2.40;;
44480;SDS011;30184;42.018;23.670;2023-09-19T11:29:45;8.15;;;2.70;;
44480;SDS011;30184;42.018;23.670;2023-09-19T11:32:16;3.75;;;2.13;;
44480;SDS011;30184;42.018;23.670;2023-09-19T11:34:47;3.47;;;1.83;;
44480;SDS011;30184;42.018;23.670;2023-09-19T11:40:40;4.30;;;2.03;;
44480;SDS011;30184;42.018;23.670;2023-09-19T11:43:28;4.97;;;2.17;;
44480;SDS011;30184;42.018;23.670;2023-09-19T11:46:06;2.95;;;1.80;;
44480;SDS011;30184;42.018;23.670;2023-09-19T11:48:38;6.05;;;2.08;;
44480;SDS011;30184;42.018;23.670;2023-09-19T11:51:12;3.75;;;1.95;;
44480;SDS011;30184;42.018;23.670;2023-09-19T11:53:46;2.80;;;1.83;;
44480;SDS011;30184;42.018;23.670;2023-09-19T11:56:21;6.18;;;2.20;;
44480;SDS011;30184;42.018;23.670;2023-09-19T11:58:52;3.78;;;1.70;;
44480;SDS011;30184;42.018;23.670;2023-09-19T12:01:23;3.45;;;1.63;;
44480;SDS011;30184;42.018;23.670;2023-09-19T12:03:57;3.95;;;1.90;;
44480;SDS011;30184;42.018;23.670;2023-09-19T12:06:29;4.60;;;2.10;;
44480;SDS011;30184;42.018;23.670;2023-09-19T12:09:00;3.00;;;1.58;;
44480;SDS011;30184;42.018;23.670;2023-09-19T12:11:40;3.10;;;1.92;;
44480;SDS011;30184;42.018;23.670;2023-09-19T12:14:11;3.78;;;2.13;;
44480;SDS011;30184;42.018;23.670;2023-09-19T12:16:51;2.53;;;1.67;;
44480;SDS011;30184;42.018;23.670;2023-09-19T12:19:23;8.25;;;1.70;;
44480;SDS011;30184;42.018;23.670;2023-09-19T12:21:58;3.58;;;1.98;;
44480;SDS011;30184;42.018;23.670;2023-09-19T12:24:32;3.90;;;1.83;;
44480;SDS011;30184;42.018;23.670;2023-09-19T12:27:06;2.83;;;1.83;;
44480;SDS011;30184;42.018;23.670;2023-09-19T12:29:43;4.55;;;2.30;;
44480;SDS011;30184;42.018;23.670;2023-09-19T12:32:13;2.90;;;1.75;;
44480;SDS011;30184;42.018;23.670;2023-09-19T12:34:50;4.30;;;2.30;;
44480;SDS011;30184;42.018;23.670;2023-09-19T12:37:22;3.60;;;2.03;;
44480;SDS011;30184;42.018;23.670;2023-09-19T12:40:03;5.88;;;1.50;;
44480;SDS011;30184;42.018;23.670;2023-09-19T12:42:45;3.17;;;1.98;;
44480;SDS011;30184;42.018;23.670;2023-09-19T12:45:15;3.72;;;2.00;;
44480;SDS011;30184;42.018;23.670;2023-09-19T12:51:00;3.80;;;2.00;;
44480;SDS011;30184;42.018;23.670;2023-09-19T12:53:33;2.25;;;1.55;;
44480;SDS011;30184;42.018;23.670;2023-09-19T12:56:08;6.50;;;1.80;;
44480;SDS011;30184;42.018;23.670;2023-09-19T12:58:49;6.78;;;1.98;;
44480;SDS011;30184;42.018;23.670;2023-09-19T13:01:22;3.42;;;1.83;;
44480;SDS011;30184;42.018;23.670;2023-09-19T13:04:11;4.30;;;2.08;;
44480;SDS011;30184;42.018;23.670;2023-09-19T13:06:42;5.47;;;2.40;;
44480;SDS011;30184;42.018;23.670;2023-09-19T13:09:12;8.10;;;1.83;;
44480;SDS011;30184;42.018;23.670;2023-09-19T13:11:42;6.60;;;1.73;;
44480;SDS011;30184;42.018;23.670;2023-09-19T13:14:17;3.15;;;1.77;;
44480;SDS011;30184;42.018;23.670;2023-09-19T13:16:55;2.50;;;1.58;;
44480;SDS011;30184;42.018;23.670;2023-09-19T13:19:35;3.50;;;1.83;;
44480;SDS011;30184;42.018;23.670;2023-09-19T13:25:12;3.30;;;1.90;;
44480;SDS011;30184;42.018;23.670;2023-09-19T13:27:46;3.40;;;1.83;;
44480;SDS011;30184;42.018;23.670;2023-09-19T13:30:20;3.33;;;1.90;;
44480;SDS011;30184;42.018;23.670;2023-09-19T13:32:50;3.15;;;1.80;;
44480;SDS011;30184;42.018;23.670;2023-09-19T13:35:20;4.10;;;2.22;;
44480;SDS011;30184;42.018;23.670;2023-09-19T13:37:49;2.92;;;1.88;;
44480;SDS011;30184;42.018;23.670;2023-09-19T13:40:19;3.60;;;2.42;;
44480;SDS011;30184;42.018;23.670;2023-09-19T13:42:48;4.72;;;2.30;;
44480;SDS011;30184;42.018;23.670;2023-09-19T13:45:22;7.28;;;1.90;;
44480;SDS011;30184;42.018;23.670;2023-09-19T13:47:58;3.20;;;1.80;;
44480;SDS011;30184;42.018;23.670;2023-09-19T13:50:28;5.20;;;2.38;;
44480;SDS011;30184;42.018;23.670;2023-09-19T13:52:58;3.30;;;2.10;;
44480;SDS011;30184;42.018;23.670;2023-09-19T13:55:28;3.10;;;2.00;;
44480;SDS011;30184;42.018;23.670;2023-09-19T13:57:57;2.65;;;1.40;;
44480;SDS011;30184;42.018;23.670;2023-09-19T14:00:29;4.32;;;1.80;;
44480;SDS011;30184;42.018;23.670;2023-09-19T14:03:00;7.22;;;1.60;;
44480;SDS011;30184;42.018;23.670;2023-09-19T14:05:30;2.47;;;1.63;;
44480;SDS011;30184;42.018;23.670;2023-09-19T14:07:59;2.35;;;1.58;;
44480;SDS011;30184;42.018;23.670;2023-09-19T14:10:29;4.38;;;2.05;;
44480;SDS011;30184;42.018;23.670;2023-09-19T14:12:59;3.95;;;1.95;;
44480;SDS011;30184;42.018;23.670;2023-09-19T14:15:29;4.72;;;2.58;;
44480;SDS011;30184;42.018;23.670;2023-09-19T14:17:59;5.13;;;2.03;;
44480;SDS011;30184;42.018;23.670;2023-09-19T14:20:29;6.07;;;1.80;;
44480;SDS011;30184;42.018;23.670;2023-09-19T14:22:59;6.38;;;2.00;;
44480;SDS011;30184;42.018;23.670;2023-09-19T14:25:29;4.78;;;1.65;;
44480;SDS011;30184;42.018;23.670;2023-09-19T14:27:58;4.38;;;1.95;;
44480;SDS011;30184;42.018;23.670;2023-09-19T14:30:28;2.95;;;1.85;;
44480;SDS011;30184;42.018;23.670;2023-09-19T14:32:58;3.50;;;1.90;;
44480;SDS011;30184;42.018;23.670;2023-09-19T14:35:28;3.90;;;2.03;;
44480;SDS011;30184;42.018;23.670;2023-09-19T14:37:57;3.47;;;2.00;;
44480;SDS011;30184;42.018;23.670;2023-09-19T14:40:26;4.85;;;2.45;;
44480;SDS011;30184;42.018;23.670;2023-09-19T14:42:56;3.35;;;1.85;;
44480;SDS011;30184;42.018;23.670;2023-09-19T14:45:25;4.70;;;2.42;;
44480;SDS011;30184;42.018;23.670;2023-09-19T14:47:56;3.42;;;1.65;;
44480;SDS011;30184;42.018;23.670;2023-09-19T14:50:26;3.63;;;2.10;;
44480;SDS011;30184;42.018;23.670;2023-09-19T14:52:57;4.45;;;2.33;;
44480;SDS011;30184;42.018;23.670;2023-09-19T14:55:29;4.82;;;2.17;;
44480;SDS011;30184;42.018;23.670;2023-09-19T14:58:02;4.38;;;2.00;;
44480;SDS011;30184;42.018;23.670;2023-09-19T15:00:31;3.67;;;2.08;;
44480;SDS011;30184;42.018;23.670;2023-09-19T15:03:03;5.78;;;2.50;;
44480;SDS011;30184;42.018;23.670;2023-09-19T15:05:33;5.18;;;2.42;;
44480;SDS011;30184;42.018;23.670;2023-09-19T15:08:02;5.63;;;2.30;;
44480;SDS011;30184;42.018;23.670;2023-09-19T15:10:33;3.67;;;2.00;;
44480;SDS011;30184;42.018;23.670;2023-09-19T15:13:02;3.78;;;2.53;;
44480;SDS011;30184;42.018;23.670;2023-09-19T15:15:32;5.18;;;2.38;;
44480;SDS011;30184;42.018;23.670;2023-09-19T15:18:03;4.13;;;2.30;;
44480;SDS011;30184;42.018;23.670;2023-09-19T15:20:34;3.65;;;2.30;;
44480;SDS011;30184;42.018;23.670;2023-09-19T15:23:03;5.90;;;2.17;;